createdAt,value
2019-02-25T15:41:44.116Z,9.87
2019-02-25T15:44:13.187Z,10.30
2019-02-25T15:46:43.229Z,10.23
2019-02-25T15:49:16.963Z,10.60
2019-02-25T15:51:45.302Z,10.50
2019-02-25T15:54:15.337Z,10.63
2019-02-25T15:56:45.258Z,10.97
2019-02-25T15:59:15.281Z,10.47
2019-02-25T16:01:45.445Z,11.33
2019-02-25T16:04:15.462Z,12.97
2019-02-25T16:06:45.480Z,11.70
2019-02-25T16:09:17.307Z,10.90
2019-02-25T16:11:47.523Z,10.93
2019-02-25T16:14:19.081Z,11.27
2019-02-25T16:16:49.685Z,11.37
2019-02-25T16:19:19.693Z,11.27
2019-02-25T16:21:49.729Z,11.90
2019-02-25T16:24:19.808Z,11.93
2019-02-25T16:26:50.161Z,12.00
2019-02-25T16:29:20.396Z,12.43
2019-02-25T16:31:51.541Z,11.90
2019-02-25T16:34:22.041Z,12.50
2019-02-25T16:36:53.676Z,12.73
2019-02-25T16:39:23.686Z,11.50
2019-02-25T16:41:53.701Z,11.67
2019-02-25T16:44:23.769Z,12.43
2019-02-25T16:46:54.142Z,13.17
2019-02-25T16:49:24.214Z,12.90
2019-02-25T16:51:55.532Z,12.57
2019-02-25T16:54:26.039Z,13.03
2019-02-25T16:56:55.987Z,12.63
2019-02-25T16:59:25.928Z,13.13
2019-02-25T17:01:58.003Z,12.40
2019-02-25T17:04:31.539Z,12.20
2019-02-25T17:07:00.130Z,12.73
2019-02-25T17:09:32.420Z,13.07
2019-02-25T17:12:05.122Z,12.63
2019-02-25T17:14:35.178Z,13.10
2019-02-25T17:17:06.316Z,13.23
2019-02-25T17:19:38.482Z,12.40
2019-02-25T17:22:08.000Z,13.00
2019-02-25T17:24:39.291Z,12.77
2019-02-25T17:27:11.469Z,13.10
2019-02-25T17:29:41.149Z,12.70
2019-02-25T17:32:11.785Z,12.87
2019-02-25T17:34:43.511Z,12.37
2019-02-25T17:37:14.841Z,12.83
2019-02-25T17:39:45.394Z,12.37
2019-02-25T17:42:16.569Z,12.57
2019-02-25T17:44:46.913Z,12.87
2019-02-25T17:47:24.045Z,13.13
2019-02-25T17:49:48.589Z,12.50
2019-02-25T17:52:20.300Z,12.73
2019-02-25T17:54:50.446Z,12.67
2019-02-25T17:57:20.555Z,12.57
2019-02-25T17:59:50.967Z,12.90
2019-02-25T18:02:22.234Z,12.57
2019-02-25T18:04:53.281Z,12.70
2019-02-25T18:07:23.883Z,12.70
2019-02-25T18:09:53.900Z,14.10
2019-02-25T18:12:25.669Z,13.07
2019-02-25T18:14:55.546Z,14.47
2019-02-25T18:17:25.550Z,13.40
2019-02-25T18:19:56.785Z,13.80
2019-02-25T18:22:26.724Z,13.30
2019-02-25T18:24:56.793Z,14.33
2019-02-25T18:27:26.816Z,13.80
2019-02-25T18:29:57.419Z,13.90
2019-02-25T18:32:30.343Z,13.00
2019-02-25T18:35:00.532Z,13.00
2019-02-25T18:37:30.677Z,12.80
2019-02-25T18:40:00.708Z,12.73
2019-02-25T18:42:32.017Z,13.70
2019-02-25T18:45:02.498Z,13.57
2019-02-25T18:47:34.232Z,12.07
2019-02-25T18:50:04.909Z,12.60
2019-02-25T18:52:36.753Z,13.23
2019-02-25T18:55:08.948Z,12.60
2019-02-25T18:57:39.112Z,13.27
2019-02-25T19:00:12.444Z,13.30
2019-02-25T19:02:42.807Z,13.17
2019-02-25T19:05:14.048Z,12.90
2019-02-25T19:07:47.141Z,13.33
2019-02-25T19:10:18.277Z,12.77
2019-02-25T19:12:49.651Z,13.33
2019-02-25T19:15:20.501Z,13.33
2019-02-25T19:17:52.043Z,13.33
2019-02-25T19:20:22.360Z,13.93
2019-02-25T19:22:52.606Z,12.93
2019-02-25T19:25:25.295Z,14.30
2019-02-25T19:27:56.608Z,13.53
2019-02-25T19:30:27.864Z,12.80
2019-02-25T19:33:09.065Z,13.87
2019-02-25T19:35:32.548Z,12.93
2019-02-25T19:38:05.132Z,13.03
2019-02-25T19:40:36.622Z,14.00
2019-02-25T19:43:06.352Z,12.70
2019-02-25T19:45:36.871Z,13.03
2019-02-25T19:48:08.227Z,12.90
2019-02-25T19:50:49.876Z,13.57
2019-02-25T19:53:12.652Z,13.00
2019-02-25T19:55:43.926Z,13.00
2019-02-25T19:58:13.881Z,12.90
2019-02-25T20:00:44.552Z,13.13
2019-02-25T20:03:14.662Z,13.03
2019-02-25T20:05:46.350Z,13.77
2019-02-25T20:08:16.349Z,13.87
2019-02-25T20:10:46.409Z,13.33
2019-02-25T20:13:17.317Z,13.77
2019-02-25T20:15:48.991Z,12.97
2019-02-25T20:18:19.034Z,12.80
2019-02-25T20:20:51.394Z,13.20
2019-02-25T20:23:23.999Z,13.37
2019-02-25T20:25:55.745Z,13.67
2019-02-25T20:28:26.825Z,13.47
2019-02-25T20:30:56.974Z,13.50
2019-02-25T20:33:30.488Z,13.53
2019-02-25T20:36:00.557Z,13.80
2019-02-25T20:38:32.656Z,13.93
2019-02-25T20:41:02.559Z,13.60
2019-02-25T20:43:33.565Z,13.57
2019-02-25T20:46:05.966Z,12.67
2019-02-25T20:48:35.302Z,13.67
2019-02-25T20:51:07.159Z,12.83
2019-02-25T20:53:37.768Z,13.37
2019-02-25T20:56:07.940Z,12.80
2019-02-25T20:58:40.006Z,13.67
2019-02-25T21:01:11.539Z,13.27
2019-02-25T21:03:43.874Z,13.10
2019-02-25T21:06:14.592Z,13.20
2019-02-25T21:08:46.176Z,12.87
2019-02-25T21:11:17.153Z,13.13
2019-02-25T21:13:47.126Z,12.87
2019-02-25T21:16:17.053Z,12.20
2019-02-25T21:18:48.765Z,12.80
2019-02-25T21:21:18.739Z,12.87
2019-02-25T21:23:48.666Z,12.93
2019-02-25T21:26:18.700Z,12.87
2019-02-25T21:28:48.645Z,13.23
2019-02-25T21:31:19.550Z,12.40
2019-02-25T21:33:52.269Z,13.03
2019-02-25T21:36:22.038Z,12.37
2019-02-25T21:38:53.816Z,12.27
2019-02-25T21:41:23.533Z,12.63
2019-02-25T21:43:54.071Z,13.10
2019-02-25T21:46:26.471Z,13.37
2019-02-25T21:48:59.912Z,12.70
2019-02-25T21:51:32.669Z,13.00
2019-02-25T21:54:02.151Z,12.60
2019-02-25T21:56:32.189Z,13.17
2019-02-25T21:59:02.046Z,12.47
2019-02-25T22:01:32.736Z,13.20
2019-02-25T22:04:03.754Z,12.80
2019-02-25T22:06:33.773Z,13.27
2019-02-25T22:09:05.050Z,13.53
2019-02-25T22:11:36.749Z,12.70
2019-02-25T22:14:06.691Z,12.77
2019-02-25T22:16:43.832Z,12.20
2019-02-25T22:19:09.862Z,12.87
2019-02-25T22:21:39.934Z,13.37
2019-02-25T22:24:09.921Z,13.07
2019-02-25T22:26:39.776Z,12.77
2019-02-25T22:29:09.711Z,12.27
2019-02-25T22:31:41.883Z,12.50
2019-02-25T22:34:13.094Z,12.60
2019-02-25T22:36:45.827Z,12.50
2019-02-25T22:39:14.386Z,12.43
2019-02-25T22:41:45.009Z,12.43
2019-02-25T22:44:15.957Z,12.30
2019-02-25T22:46:45.973Z,12.37
2019-02-25T22:49:15.961Z,12.60
2019-02-25T22:51:45.891Z,12.47
2019-02-25T22:54:17.516Z,12.83
2019-02-25T22:56:48.378Z,12.03
2019-02-25T22:59:20.723Z,12.70
2019-02-25T23:01:52.068Z,12.60
2019-02-25T23:04:22.528Z,12.37
2019-02-25T23:06:53.636Z,12.97
2019-02-25T23:09:25.791Z,12.93
2019-02-25T23:11:55.915Z,12.40
2019-02-25T23:14:25.921Z,12.43
2019-02-25T23:16:55.782Z,12.90
2019-02-25T23:19:25.713Z,13.83
2019-02-25T23:21:55.653Z,13.43
2019-02-25T23:24:27.958Z,12.30
2019-02-25T23:26:57.896Z,13.27
2019-02-25T23:29:28.810Z,12.73
2019-02-25T23:32:02.504Z,13.33
2019-02-25T23:34:31.353Z,13.30
2019-02-25T23:37:01.291Z,13.90
2019-02-25T23:39:32.318Z,13.17
2019-02-25T23:42:05.013Z,12.93
2019-02-25T23:44:34.413Z,13.10
2019-02-25T23:47:06.702Z,13.00
2019-02-25T23:49:36.449Z,13.10
2019-02-25T23:52:07.697Z,13.40
2019-02-25T23:54:37.613Z,12.53
2019-02-25T23:57:07.537Z,12.80
2019-02-25T23:59:40.402Z,13.50
